sensor_id;sensor_type;location;lat;lon;timestamp;temperature;humidity
63966;DHT22;50151;52.030;5.350;2023-02-26T00:01:22;1.20;99.90
63966;DHT22;50151;52.030;5.350;2023-02-26T00:03:50;1.20;99.90
63966;DHT22;50151;52.030;5.350;2023-02-26T09:01:34;1.40;95.50
63966;DHT22;50151;52.030;5.350;2023-02-26T09:04:02;1.50;94.60
63966;DHT22;50151;52.030;5.350;2023-02-26T09:06:29;1.60;94.80
63966;DHT22;50151;52.030;5.350;2023-02-26T09:08:55;1.60;93.40
63966;DHT22;50151;52.030;5.350;2023-02-26T09:11:22;1.70;92.60
63966;DHT22;50151;52.030;5.350;2023-02-26T09:13:50;1.70;91.90
63966;DHT22;50151;52.030;5.350;2023-02-26T09:16:16;1.80;92.40
63966;DHT22;50151;52.030;5.350;2023-02-26T09:18:43;1.90;87.30
63966;DHT22;50151;52.030;5.350;2023-02-26T09:21:10;2.00;90.50
63966;DHT22;50151;52.030;5.350;2023-02-26T09:23:37;2.00;82.50
63966;DHT22;50151;52.030;5.350;2023-02-26T09:26:04;2.10;74.80
63966;DHT22;50151;52.030;5.350;2023-02-26T09:28:31;2.20;78.10
63966;DHT22;50151;52.030;5.350;2023-02-26T09:30:57;2.30;72.10
63966;DHT22;50151;52.030;5.350;2023-02-26T09:33:25;2.30;67.80
63966;DHT22;50151;52.030;5.350;2023-02-26T09:35:52;2.30;66.90
63966;DHT22;50151;52.030;5.350;2023-02-26T09:38:19;2.40;67.80
63966;DHT22;50151;52.030;5.350;2023-02-26T09:40:48;2.50;69.20
63966;DHT22;50151;52.030;5.350;2023-02-26T09:51:33;2.70;64.20
63966;DHT22;50151;52.030;5.350;2023-02-26T09:54:15;2.80;64.10
63966;DHT22;50151;52.030;5.350;2023-02-26T09:56:42;2.80;64.40
63966;DHT22;50151;52.030;5.350;2023-02-26T09:59:12;2.90;65.80
63966;DHT22;50151;52.030;5.350;2023-02-26T10:02:48;3.00;64.70
63966;DHT22;50151;52.030;5.350;2023-02-26T10:07:43;3.30;64.20
63966;DHT22;50151;52.030;5.350;2023-02-26T10:13:20;3.30;60.80
63966;DHT22;50151;52.030;5.350;2023-02-26T10:15:49;3.40;62.60
63966;DHT22;50151;52.030;5.350;2023-02-26T10:18:22;3.50;61.70
63966;DHT22;50151;52.030;5.350;2023-02-26T10:25:51;3.60;60.00
63966;DHT22;50151;52.030;5.350;2023-02-26T10:31:35;3.80;59.70
63966;DHT22;50151;52.030;5.350;2023-02-26T10:34:14;3.90;59.70
63966;DHT22;50151;52.030;5.350;2023-02-26T10:36:51;3.90;59.20
63966;DHT22;50151;52.030;5.350;2023-02-26T10:39:38;4.00;58.80
63966;DHT22;50151;52.030;5.350;2023-02-26T10:42:27;4.10;59.50
63966;DHT22;50151;52.030;5.350;2023-02-26T10:45:21;4.10;58.00
63966;DHT22;50151;52.030;5.350;2023-02-26T10:48:11;4.10;58.70
63966;DHT22;50151;52.030;5.350;2023-02-26T10:50:48;4.40;59.60
63966;DHT22;50151;52.030;5.350;2023-02-26T10:53:16;4.40;57.40
63966;DHT22;50151;52.030;5.350;2023-02-26T10:55:52;4.40;58.10
63966;DHT22;50151;52.030;5.350;2023-02-26T10:58:25;4.40;57.60
63966;DHT22;50151;52.030;5.350;2023-02-26T11:00:54;4.60;57.30
63966;DHT22;50151;52.030;5.350;2023-02-26T11:03:31;4.60;57.20
63966;DHT22;50151;52.030;5.350;2023-02-26T11:05:58;4.80;57.60
63966;DHT22;50151;52.030;5.350;2023-02-26T11:08:28;4.90;56.70
63966;DHT22;50151;52.030;5.350;2023-02-26T11:10:59;4.90;55.80
63966;DHT22;50151;52.030;5.350;2023-02-26T11:13:29;4.90;55.90
63966;DHT22;50151;52.030;5.350;2023-02-26T11:16:00;5.00;54.90
63966;DHT22;50151;52.030;5.350;2023-02-26T11:18:38;5.00;55.70
63966;DHT22;50151;52.030;5.350;2023-02-26T11:21:07;5.20;56.30
63966;DHT22;50151;52.030;5.350;2023-02-26T11:23:34;5.30;55.00
63966;DHT22;50151;52.030;5.350;2023-02-26T11:26:13;5.40;54.90
63966;DHT22;50151;52.030;5.350;2023-02-26T11:28:48;5.50;53.50
63966;DHT22;50151;52.030;5.350;2023-02-26T11:31:18;5.40;52.80
63966;DHT22;50151;52.030;5.350;2023-02-26T11:33:57;5.40;53.20
63966;DHT22;50151;52.030;5.350;2023-02-26T11:36:27;5.40;52.70
63966;DHT22;50151;52.030;5.350;2023-02-26T11:39:07;5.50;52.40
63966;DHT22;50151;52.030;5.350;2023-02-26T11:41:37;5.70;54.10
63966;DHT22;50151;52.030;5.350;2023-02-26T11:44:09;5.70;52.40
63966;DHT22;50151;52.030;5.350;2023-02-26T11:46:41;5.80;52.60
63966;DHT22;50151;52.030;5.350;2023-02-26T11:49:13;5.70;52.60
63966;DHT22;50151;52.030;5.350;2023-02-26T11:51:44;5.80;52.20
63966;DHT22;50151;52.030;5.350;2023-02-26T11:54:23;5.90;52.30
63966;DHT22;50151;52.030;5.350;2023-02-26T11:56:50;6.00;53.40
63966;DHT22;50151;52.030;5.350;2023-02-26T11:59:20;5.90;51.20
63966;DHT22;50151;52.030;5.350;2023-02-26T12:01:48;6.00;51.80
63966;DHT22;50151;52.030;5.350;2023-02-26T12:04:22;6.10;52.30
63966;DHT22;50151;52.030;5.350;2023-02-26T12:06:53;6.20;50.90
63966;DHT22;50151;52.030;5.350;2023-02-26T12:09:21;6.20;51.20
63966;DHT22;50151;52.030;5.350;2023-02-26T12:15:01;6.30;51.80
63966;DHT22;50151;52.030;5.350;2023-02-26T12:20:32;6.20;50.30
63966;DHT22;50151;52.030;5.350;2023-02-26T12:26:20;6.50;51.60
63966;DHT22;50151;52.030;5.350;2023-02-26T12:31:55;6.90;49.80
63966;DHT22;50151;52.030;5.350;2023-02-26T12:40:14;7.20;50.10
63966;DHT22;50151;52.030;5.350;2023-02-26T12:43:10;7.20;50.30
63966;DHT22;50151;52.030;5.350;2023-02-26T12:45:52;7.40;50.30
63966;DHT22;50151;52.030;5.350;2023-02-26T12:57:01;7.90;47.40
63966;DHT22;50151;52.030;5.350;2023-02-26T13:02:53;8.40;46.80
63966;DHT22;50151;52.030;5.350;2023-02-26T13:08:37;8.70;45.60
63966;DHT22;50151;52.030;5.350;2023-02-26T13:16:44;9.30;45.00
63966;DHT22;50151;52.030;5.350;2023-02-26T13:19:37;9.40;44.70
63966;DHT22;50151;52.030;5.350;2023-02-26T13:22:16;9.90;44.20
63966;DHT22;50151;52.030;5.350;2023-02-26T13:24:49;10.10;44.80
63966;DHT22;50151;52.030;5.350;2023-02-26T13:27:19;10.30;44.50
63966;DHT22;50151;52.030;5.350;2023-02-26T13:29:56;9.40;44.20
63966;DHT22;50151;52.030;5.350;2023-02-26T13:32:27;9.10;45.00
63966;DHT22;50151;52.030;5.350;2023-02-26T13:34:57;8.80;45.40
63966;DHT22;50151;52.030;5.350;2023-02-26T13:37:36;9.70;45.40
63966;DHT22;50151;52.030;5.350;2023-02-26T13:40:57;10.20;44.60
63966;DHT22;50151;52.030;5.350;2023-02-26T13:51:36;11.00;42.00
63966;DHT22;50151;52.030;5.350;2023-02-26T14:01:48;11.40;42.10
63966;DHT22;50151;52.030;5.350;2023-02-26T14:06:46;11.20;40.90
63966;DHT22;50151;52.030;5.350;2023-02-26T14:15:18;11.50;40.20
63966;DHT22;50151;52.030;5.350;2023-02-26T14:17:47;11.80;39.50
63966;DHT22;50151;52.030;5.350;2023-02-26T14:22:47;12.10;40.60
63966;DHT22;50151;52.030;5.350;2023-02-26T14:25:33;12.00;38.70
63966;DHT22;50151;52.030;5.350;2023-02-26T14:33:56;11.80;38.60
63966;DHT22;50151;52.030;5.350;2023-02-26T14:36:36;12.20;38.20
63966;DHT22;50151;52.030;5.350;2023-02-26T14:39:06;12.40;39.50
63966;DHT22;50151;52.030;5.350;2023-02-26T14:41:38;12.50;38.20
63966;DHT22;50151;52.030;5.350;2023-02-26T14:44:21;12.30;38.10
63966;DHT22;50151;52.030;5.350;2023-02-26T14:46:50;12.50;37.70
63966;DHT22;50151;52.030;5.350;2023-02-26T14:49:29;12.00;38.20
63966;DHT22;50151;52.030;5.350;2023-02-26T14:52:23;11.50;39.90
63966;DHT22;50151;52.030;5.350;2023-02-26T14:58:02;11.10;41.60
63966;DHT22;50151;52.030;5.350;2023-02-26T15:04:19;11.50;41.20
63966;DHT22;50151;52.030;5.350;2023-02-26T15:08:01;11.50;39.30
63966;DHT22;50151;52.030;5.350;2023-02-26T15:10:17;11.10;40.10
63966;DHT22;50151;52.030;5.350;2023-02-26T15:19:01;11.40;39.70
63966;DHT22;50151;52.030;5.350;2023-02-26T15:21:47;11.80;39.00
63966;DHT22;50151;52.030;5.350;2023-02-26T15:24:15;12.00;39.00
63966;DHT22;50151;52.030;5.350;2023-02-26T15:26:50;11.00;38.70
63966;DHT22;50151;52.030;5.350;2023-02-26T15:29:20;11.60;39.90
63966;DHT22;50151;52.030;5.350;2023-02-26T15:31:56;12.00;39.50
63966;DHT22;50151;52.030;5.350;2023-02-26T15:34:23;11.50;40.10
63966;DHT22;50151;52.030;5.350;2023-02-26T15:36:51;11.60;40.10
63966;DHT22;50151;52.030;5.350;2023-02-26T15:39:22;10.60;40.50
63966;DHT22;50151;52.030;5.350;2023-02-26T15:41:50;11.00;42.90
63966;DHT22;50151;52.030;5.350;2023-02-26T15:44:27;11.00;41.60
63966;DHT22;50151;52.030;5.350;2023-02-26T15:46:59;10.40;40.90
63966;DHT22;50151;52.030;5.350;2023-02-26T15:49:41;10.50;42.00
63966;DHT22;50151;52.030;5.350;2023-02-26T15:52:24;10.80;41.60
63966;DHT22;50151;52.030;5.350;2023-02-26T15:57:22;10.60;42.20
63966;DHT22;50151;52.030;5.350;2023-02-26T15:59:52;10.80;42.70
63966;DHT22;50151;52.030;5.350;2023-02-26T16:02:23;10.70;42.30
63966;DHT22;50151;52.030;5.350;2023-02-26T16:04:51;10.50;43.50
63966;DHT22;50151;52.030;5.350;2023-02-26T16:07:18;10.60;42.90
63966;DHT22;50151;52.030;5.350;2023-02-26T16:09:48;9.90;43.60
63966;DHT22;50151;52.030;5.350;2023-02-26T16:12:50;9.90;43.60
63966;DHT22;50151;52.030;5.350;2023-02-26T16:15:18;9.60;44.60
63966;DHT22;50151;52.030;5.350;2023-02-26T16:17:48;9.20;44.70
63966;DHT22;50151;52.030;5.350;2023-02-26T16:20:20;8.90;45.10
63966;DHT22;50151;52.030;5.350;2023-02-26T16:22:49;8.40;45.10
63966;DHT22;50151;52.030;5.350;2023-02-26T16:25:24;8.50;46.10
63966;DHT22;50151;52.030;5.350;2023-02-26T16:28:01;8.40;45.80
63966;DHT22;50151;52.030;5.350;2023-02-26T16:30:36;8.10;46.40
63966;DHT22;50151;52.030;5.350;2023-02-26T16:33:08;8.00;46.40
63966;DHT22;50151;52.030;5.350;2023-02-26T16:35:48;8.00;47.90
63966;DHT22;50151;52.030;5.350;2023-02-26T16:38:20;8.00;48.00
63966;DHT22;50151;52.030;5.350;2023-02-26T16:40:57;7.80;49.00
63966;DHT22;50151;52.030;5.350;2023-02-26T16:46:09;7.70;49.90
63966;DHT22;50151;52.030;5.350;2023-02-26T16:48:46;7.50;49.60
63966;DHT22;50151;52.030;5.350;2023-02-26T16:51:18;7.60;50.30
63966;DHT22;50151;52.030;5.350;2023-02-26T16:53:46;7.40;50.60
63966;DHT22;50151;52.030;5.350;2023-02-26T16:56:17;7.60;50.80
63966;DHT22;50151;52.030;5.350;2023-02-26T16:58:47;7.40;51.30
63966;DHT22;50151;52.030;5.350;2023-02-26T17:01:17;7.30;51.30
63966;DHT22;50151;52.030;5.350;2023-02-26T17:03:47;7.30;51.70
63966;DHT22;50151;52.030;5.350;2023-02-26T17:06:16;7.20;51.60
63966;DHT22;50151;52.030;5.350;2023-02-26T17:08:59;7.10;51.80
63966;DHT22;50151;52.030;5.350;2023-02-26T17:11:37;6.90;52.30
63966;DHT22;50151;52.030;5.350;2023-02-26T17:14:14;6.70;53.30
63966;DHT22;50151;52.030;5.350;2023-02-26T17:16:47;6.40;53.90
63966;DHT22;50151;52.030;5.350;2023-02-26T17:19:14;6.50;55.10
63966;DHT22;50151;52.030;5.350;2023-02-26T17:21:46;6.60;55.50
63966;DHT22;50151;52.030;5.350;2023-02-26T17:24:20;6.60;56.20
63966;DHT22;50151;52.030;5.350;2023-02-26T17:26:50;6.60;56.30
63966;DHT22;50151;52.030;5.350;2023-02-26T17:29:23;6.40;57.00
63966;DHT22;50151;52.030;5.350;2023-02-26T17:31:50;6.30;58.00
63966;DHT22;50151;52.030;5.350;2023-02-26T17:34:19;6.20;58.20
63966;DHT22;50151;52.030;5.350;2023-02-26T17:36:47;6.20;58.20
63966;DHT22;50151;52.030;5.350;2023-02-26T17:39:14;6.10;59.30
63966;DHT22;50151;52.030;5.350;2023-02-26T17:41:44;6.10;59.10
63966;DHT22;50151;52.030;5.350;2023-02-26T17:44:11;6.00;59.70
63966;DHT22;50151;52.030;5.350;2023-02-26T17:46:38;5.90;60.70
63966;DHT22;50151;52.030;5.350;2023-02-26T17:49:05;5.90;60.90
63966;DHT22;50151;52.030;5.350;2023-02-26T17:51:31;6.00;61.30
63966;DHT22;50151;52.030;5.350;2023-02-26T17:53:58;5.90;61.30
63966;DHT22;50151;52.030;5.350;2023-02-26T17:56:27;5.80;62.20
63966;DHT22;50151;52.030;5.350;2023-02-26T17:58:55;5.80;62.50
63966;DHT22;50151;52.030;5.350;2023-02-26T18:01:23;5.70;63.00
63966;DHT22;50151;52.030;5.350;2023-02-26T18:03:52;5.70;63.80
63966;DHT22;50151;52.030;5.350;2023-02-26T18:06:23;5.60;64.60
63966;DHT22;50151;52.030;5.350;2023-02-26T18:08:50;5.50;65.00
63966;DHT22;50151;52.030;5.350;2023-02-26T18:11:18;5.30;64.40
63966;DHT22;50151;52.030;5.350;2023-02-26T18:13:46;5.40;65.90
63966;DHT22;50151;52.030;5.350;2023-02-26T18:16:20;5.20;65.40
63966;DHT22;50151;52.030;5.350;2023-02-26T18:18:48;5.20;65.80
63966;DHT22;50151;52.030;5.350;2023-02-26T18:21:16;5.10;65.60
63966;DHT22;50151;52.030;5.350;2023-02-26T18:23:43;5.00;66.20
63966;DHT22;50151;52.030;5.350;2023-02-26T18:26:09;5.00;67.40
63966;DHT22;50151;52.030;5.350;2023-02-26T18:28:37;5.00;66.30
63966;DHT22;50151;52.030;5.350;2023-02-26T18:31:04;4.90;67.70
63966;DHT22;50151;52.030;5.350;2023-02-26T18:33:35;4.90;67.20
63966;DHT22;50151;52.030;5.350;2023-02-26T18:36:04;4.80;67.70
63966;DHT22;50151;52.030;5.350;2023-02-26T18:38:31;4.80;68.00
63966;DHT22;50151;52.030;5.350;2023-02-26T18:40:58;4.80;69.10
63966;DHT22;50151;52.030;5.350;2023-02-26T18:43:27;4.80;69.00
63966;DHT22;50151;52.030;5.350;2023-02-26T18:45:54;4.70;68.10
63966;DHT22;50151;52.030;5.350;2023-02-26T18:48:27;4.70;69.20
63966;DHT22;50151;52.030;5.350;2023-02-26T18:50:54;4.70;69.40
63966;DHT22;50151;52.030;5.350;2023-02-26T18:53:22;4.60;70.10
63966;DHT22;50151;52.030;5.350;2023-02-26T18:55:52;4.60;68.50
63966;DHT22;50151;52.030;5.350;2023-02-26T18:58:20;4.50;71.50
63966;DHT22;50151;52.030;5.350;2023-02-26T19:00:48;4.40;72.60
63966;DHT22;50151;52.030;5.350;2023-02-26T19:03:15;4.30;73.50
63966;DHT22;50151;52.030;5.350;2023-02-26T19:05:42;4.30;76.40
63966;DHT22;50151;52.030;5.350;2023-02-26T19:08:09;4.30;77.00
63966;DHT22;50151;52.030;5.350;2023-02-26T19:10:36;4.30;75.80
63966;DHT22;50151;52.030;5.350;2023-02-26T19:13:07;4.30;75.80
63966;DHT22;50151;52.030;5.350;2023-02-26T19:15:34;4.30;77.60
63966;DHT22;50151;52.030;5.350;2023-02-26T19:18:01;4.20;78.60
63966;DHT22;50151;52.030;5.350;2023-02-26T19:20:29;4.10;76.90
63966;DHT22;50151;52.030;5.350;2023-02-26T19:22:56;4.20;78.60
63966;DHT22;50151;52.030;5.350;2023-02-26T19:25:22;4.20;80.90
63966;DHT22;50151;52.030;5.350;2023-02-26T19:27:51;4.10;82.60
63966;DHT22;50151;52.030;5.350;2023-02-26T19:30:20;4.00;82.50
63966;DHT22;50151;52.030;5.350;2023-02-26T19:32:47;3.90;80.80
63966;DHT22;50151;52.030;5.350;2023-02-26T19:35:15;3.90;83.50
63966;DHT22;50151;52.030;5.350;2023-02-26T19:37:46;3.90;84.80
63966;DHT22;50151;52.030;5.350;2023-02-26T19:40:14;3.80;83.00
63966;DHT22;50151;52.030;5.350;2023-02-26T19:42:46;3.80;85.50
63966;DHT22;50151;52.030;5.350;2023-02-26T19:45:13;3.80;84.60
63966;DHT22;50151;52.030;5.350;2023-02-26T19:47:40;3.80;88.70
63966;DHT22;50151;52.030;5.350;2023-02-26T19:50:08;3.70;85.70
63966;DHT22;50151;52.030;5.350;2023-02-26T19:52:35;3.70;89.50
63966;DHT22;50151;52.030;5.350;2023-02-26T19:55:04;3.70;90.10
63966;DHT22;50151;52.030;5.350;2023-02-26T19:57:32;3.70;90.10
63966;DHT22;50151;52.030;5.350;2023-02-26T19:59:58;3.60;90.80
63966;DHT22;50151;52.030;5.350;2023-02-26T20:02:26;3.60;91.00
63966;DHT22;50151;52.030;5.350;2023-02-26T20:04:53;3.60;90.40
63966;DHT22;50151;52.030;5.350;2023-02-26T20:07:20;3.60;90.50
63966;DHT22;50151;52.030;5.350;2023-02-26T20:09:46;3.50;90.90
63966;DHT22;50151;52.030;5.350;2023-02-26T20:12:15;3.50;91.80
63966;DHT22;50151;52.030;5.350;2023-02-26T20:14:42;3.40;91.80
63966;DHT22;50151;52.030;5.350;2023-02-26T20:17:09;3.40;92.30
63966;DHT22;50151;52.030;5.350;2023-02-26T20:19:36;3.30;92.30
63966;DHT22;50151;52.030;5.350;2023-02-26T20:22:02;3.20;93.20
63966;DHT22;50151;52.030;5.350;2023-02-26T20:24:29;3.20;92.40
63966;DHT22;50151;52.030;5.350;2023-02-26T20:26:58;3.10;93.10
63966;DHT22;50151;52.030;5.350;2023-02-26T20:29:25;3.10;92.50
63966;DHT22;50151;52.030;5.350;2023-02-26T20:31:52;3.00;92.50
63966;DHT22;50151;52.030;5.350;2023-02-26T20:34:20;3.10;92.50
63966;DHT22;50151;52.030;5.350;2023-02-26T20:36:46;3.10;92.70
63966;DHT22;50151;52.030;5.350;2023-02-26T20:39:15;3.00;92.80
63966;DHT22;50151;52.030;5.350;2023-02-26T20:41:44;3.00;92.30
63966;DHT22;50151;52.030;5.350;2023-02-26T20:44:11;2.90;92.60
63966;DHT22;50151;52.030;5.350;2023-02-26T20:46:38;2.90;93.30
63966;DHT22;50151;52.030;5.350;2023-02-26T20:49:05;2.90;93.60
63966;DHT22;50151;52.030;5.350;2023-02-26T20:51:40;2.90;93.80
63966;DHT22;50151;52.030;5.350;2023-02-26T20:54:11;2.80;94.00
63966;DHT22;50151;52.030;5.350;2023-02-26T20:56:43;2.80;94.20
63966;DHT22;50151;52.030;5.350;2023-02-26T20:59:10;2.70;94.00
63966;DHT22;50151;52.030;5.350;2023-02-26T21:01:37;2.70;93.70
63966;DHT22;50151;52.030;5.350;2023-02-26T21:04:06;2.70;94.10
63966;DHT22;50151;52.030;5.350;2023-02-26T21:06:33;2.60;94.10
63966;DHT22;50151;52.030;5.350;2023-02-26T21:09:00;2.60;94.20
63966;DHT22;50151;52.030;5.350;2023-02-26T21:11:28;2.60;94.90
63966;DHT22;50151;52.030;5.350;2023-02-26T21:14:04;2.50;95.40
63966;DHT22;50151;52.030;5.350;2023-02-26T21:16:32;2.50;95.60
63966;DHT22;50151;52.030;5.350;2023-02-26T21:18:59;2.40;95.60
63966;DHT22;50151;52.030;5.350;2023-02-26T21:21:27;2.40;95.80
63966;DHT22;50151;52.030;5.350;2023-02-26T21:23:54;2.30;96.50
63966;DHT22;50151;52.030;5.350;2023-02-26T21:26:21;2.30;96.60
63966;DHT22;50151;52.030;5.350;2023-02-26T21:28:48;2.30;96.80
63966;DHT22;50151;52.030;5.350;2023-02-26T21:31:16;2.20;96.90
63966;DHT22;50151;52.030;5.350;2023-02-26T21:33:44;2.20;97.60
63966;DHT22;50151;52.030;5.350;2023-02-26T21:36:11;2.10;97.70
63966;DHT22;50151;52.030;5.350;2023-02-26T21:38:39;2.10;97.90
63966;DHT22;50151;52.030;5.350;2023-02-26T21:41:06;2.00;98.20
63966;DHT22;50151;52.030;5.350;2023-02-26T21:43:33;2.00;98.60
63966;DHT22;50151;52.030;5.350;2023-02-26T21:46:00;1.90;98.50
63966;DHT22;50151;52.030;5.350;2023-02-26T21:48:27;1.90;98.60
63966;DHT22;50151;52.030;5.350;2023-02-26T21:50:53;1.90;98.90
63966;DHT22;50151;52.030;5.350;2023-02-26T21:53:22;1.90;98.70
63966;DHT22;50151;52.030;5.350;2023-02-26T21:55:49;1.80;98.70
63966;DHT22;50151;52.030;5.350;2023-02-26T21:58:15;1.80;98.90
63966;DHT22;50151;52.030;5.350;2023-02-26T22:00:42;1.80;99.20
63966;DHT22;50151;52.030;5.350;2023-02-26T22:03:09;1.80;99.60
63966;DHT22;50151;52.030;5.350;2023-02-26T22:05:36;1.80;99.50
63966;DHT22;50151;52.030;5.350;2023-02-26T22:08:03;1.70;99.40
63966;DHT22;50151;52.030;5.350;2023-02-26T22:10:30;1.70;99.60
63966;DHT22;50151;52.030;5.350;2023-02-26T22:12:57;1.60;99.60
63966;DHT22;50151;52.030;5.350;2023-02-26T22:15:24;1.60;99.90
63966;DHT22;50151;52.030;5.350;2023-02-26T22:17:50;1.60;99.90
63966;DHT22;50151;52.030;5.350;2023-02-26T22:20:17;1.60;99.90
